Time;durP1;ratioP1;P1;durP2;ratioP2;P2;SDS_P1;SDS_P2;PMS_P1;PMS_P2;Temp;Humidity;BMP_temperature;BMP_pressure;BME280_temperature;BME280_humidity;BME280_pressure;Samples;Min_cycle;Max_cycle;Signal;HPM_P1;HPM_P2
2023/05/19 00:01:15;;;;;;;;;18.00;17.75;;;;;;;;6375726;22;8756;-70
2023/05/19 00:03:53;;;;;;;;;14.25;13.50;;;;;;;;6375811;22;8739;-70
2023/05/19 00:06:23;;;;;;;;;17.00;16.75;;;;;;;;6375764;22;11326;-71
2023/05/19 00:08:49;;;;;;;;;16.25;14.75;;;;;;;;6375484;22;11342;-71
2023/05/19 00:11:14;;;;;;;;;15.00;15.00;;;;;;;;6375400;22;11376;-69
2023/05/19 00:13:40;;;;;;;;;23.75;21.75;;;;;;;;6347069;22;8851;-71
2023/05/19 00:16:05;;;;;;;;;20.75;19.00;;;;;;;;6375672;22;8829;-70
2023/05/19 00:18:31;;;;;;;;;19.75;19.00;;;;;;;;6375411;22;8740;-71
2023/05/19 00:20:56;;;;;;;;;19.25;17.75;;;;;;;;6370045;22;8855;-71
2023/05/19 00:23:21;;;;;;;;;15.25;13.00;;;;;;;;6374731;22;8782;-70
2023/05/19 00:25:46;;;;;;;;;17.75;15.00;;;;;;;;6375795;22;8766;-70
2023/05/19 00:28:11;;;;;;;;;17.50;16.25;;;;;;;;6376025;22;8836;-70
2023/05/19 00:30:36;;;;;;;;;19.75;17.75;;;;;;;;6375714;22;8748;-70
2023/05/19 00:33:02;;;;;;;;;22.00;20.00;;;;;;;;6375668;22;8755;-70
2023/05/19 00:35:27;;;;;;;;;20.00;20.00;;;;;;;;6347066;22;8752;-70
2023/05/19 00:37:52;;;;;;;;;17.00;15.00;;;;;;;;6375515;22;8740;-70
2023/05/19 00:40:17;;;;;;;;;19.75;17.00;;;;;;;;6375924;22;8899;-71
2023/05/19 00:42:42;;;;;;;;;18.75;18.50;;;;;;;;6375930;22;8859;-71
2023/05/19 00:45:08;;;;;;;;;21.00;17.25;;;;;;;;6375903;22;9992;-70
2023/05/19 00:47:33;;;;;;;;;20.50;19.00;;;;;;;;6375689;22;8748;-70
2023/05/19 00:49:58;;;;;;;;;15.00;15.00;;;;;;;;6375396;22;8748;-70
2023/05/19 00:52:24;;;;;;;;;19.00;17.75;;;;;;;;6369606;22;8744;-70
2023/05/19 00:54:50;;;;;;;;;22.00;18.75;;;;;;;;6375437;22;8754;-70
2023/05/19 00:57:15;;;;;;;;;16.50;15.50;;;;;;;;6375075;22;8828;-70
2023/05/19 00:59:40;;;;;;;;;18.25;16.75;;;;;;;;6374518;22;11538;-70
2023/05/19 01:02:06;;;;;;;;;17.50;16.00;;;;;;;;6346535;22;8851;-70
2023/05/19 01:04:33;;;;;;;;;17.75;16.75;;;;;;;;6375312;22;8728;-70
2023/05/19 01:06:59;;;;;;;;;18.50;18.50;;;;;;;;6375072;22;11371;-71
2023/05/19 01:09:24;;;;;;;;;18.00;18.00;;;;;;;;6374777;22;11353;-70
2023/05/19 01:11:49;;;;;;;;;19.75;18.00;;;;;;;;6374870;22;8736;-70
2023/05/19 01:14:15;;;;;;;;;18.25;15.25;;;;;;;;6375476;22;8756;-70
2023/05/19 01:16:55;;;;;;;;;17.75;17.50;;;;;;;;6375375;22;8739;-70
2023/05/19 01:19:39;;;;;;;;;22.25;19.50;;;;;;;;6375046;22;8732;-70
2023/05/19 01:22:13;;;;;;;;;22.50;18.50;;;;;;;;6369551;22;11500;-69
2023/05/19 01:24:55;;;;;;;;;21.75;19.50;;;;;;;;6375224;22;11381;-71
2023/05/19 01:27:34;;;;;;;;;18.25;17.25;;;;;;;;6374487;22;11370;-71
2023/05/19 01:30:18;;;;;;;;;23.75;19.25;;;;;;;;6374848;22;11345;-72
2023/05/19 01:32:44;;;;;;;;;19.50;19.50;;;;;;;;6374631;22;11352;-72
2023/05/19 01:35:11;;;;;;;;;21.50;20.50;;;;;;;;6374812;22;11339;-71
2023/05/19 01:37:37;;;;;;;;;25.00;19.50;;;;;;;;6374684;22;12116;-71
2023/05/19 01:40:03;;;;;;;;;23.50;19.75;;;;;;;;6374727;22;11377;-71
2023/05/19 01:42:28;;;;;;;;;19.75;19.00;;;;;;;;6374867;22;11391;-71
2023/05/19 01:44:54;;;;;;;;;21.50;16.50;;;;;;;;6375138;22;8900;-71
2023/05/19 01:47:20;;;;;;;;;21.25;18.75;;;;;;;;6374657;22;8803;-71
2023/05/19 01:49:45;;;;;;;;;19.50;16.25;;;;;;;;6375196;22;8743;-71
2023/05/19 01:52:10;;;;;;;;;22.25;19.25;;;;;;;;6369760;22;8873;-70
2023/05/19 01:54:35;;;;;;;;;24.75;21.50;;;;;;;;6375405;22;8825;-71
2023/05/19 01:57:07;;;;;;;;;25.00;21.25;;;;;;;;6346875;22;8754;-70
2023/05/19 01:59:40;;;;;;;;;17.25;15.25;;;;;;;;6375023;22;8758;-70
2023/05/19 02:02:13;;;;;;;;;21.50;19.75;;;;;;;;6375481;22;11462;-71
2023/05/19 02:04:38;;;;;;;;;23.25;21.75;;;;;;;;6374882;22;11393;-70
2023/05/19 02:07:07;;;;;;;;;24.00;21.50;;;;;;;;6374892;22;11623;-70
2023/05/19 02:09:39;;;;;;;;;20.75;18.25;;;;;;;;6375239;22;8732;-70
2023/05/19 02:12:10;;;;;;;;;24.25;22.00;;;;;;;;6375061;22;11376;-70
2023/05/19 02:14:40;;;;;;;;;23.75;19.75;;;;;;;;6374793;22;11490;-71
2023/05/19 02:17:05;;;;;;;;;23.50;22.75;;;;;;;;6346322;22;11424;-70
2023/05/19 02:19:32;;;;;;;;;20.50;17.75;;;;;;;;6374601;22;12210;-70
2023/05/19 02:21:57;;;;;;;;;23.50;16.25;;;;;;;;6374960;22;8720;-70
2023/05/19 02:24:23;;;;;;;;;15.00;15.00;;;;;;;;6374932;22;11491;-70
2023/05/19 02:26:49;;;;;;;;;16.25;16.25;;;;;;;;6374949;22;8788;-70
2023/05/19 02:29:14;;;;;;;;;22.00;18.75;;;;;;;;6375005;22;8716;-70
2023/05/19 02:31:39;;;;;;;;;24.50;21.75;;;;;;;;6374940;22;11417;-71
2023/05/19 02:34:04;;;;;;;;;22.50;20.00;;;;;;;;6374840;22;8775;-70
2023/05/19 02:36:33;;;;;;;;;23.25;22.00;;;;;;;;6374520;22;8743;-70
2023/05/19 02:39:00;;;;;;;;;27.50;19.25;;;;;;;;6374898;22;8737;-70
2023/05/19 02:41:25;;;;;;;;;18.00;17.00;;;;;;;;6375678;22;11531;-71
2023/05/19 02:43:50;;;;;;;;;24.00;18.75;;;;;;;;6376425;22;11552;-70
2023/05/19 02:46:16;;;;;;;;;18.25;17.50;;;;;;;;6376602;22;8744;-70
2023/05/19 02:48:41;;;;;;;;;24.25;20.00;;;;;;;;6377195;22;8752;-70
2023/05/19 02:51:06;;;;;;;;;22.50;21.25;;;;;;;;6376263;22;8843;-70
2023/05/19 02:53:31;;;;;;;;;20.25;17.50;;;;;;;;6376635;22;8759;-70
2023/05/19 02:55:56;;;;;;;;;23.50;18.50;;;;;;;;6375926;22;8755;-71
2023/05/19 02:58:21;;;;;;;;;23.50;19.50;;;;;;;;6376097;22;8886;-71
2023/05/19 03:00:47;;;;;;;;;24.50;20.25;;;;;;;;6375774;22;8759;-71
2023/05/19 03:03:13;;;;;;;;;22.75;20.50;;;;;;;;6376348;22;8779;-70
2023/05/19 03:05:38;;;;;;;;;23.25;22.75;;;;;;;;6375920;22;8712;-70
2023/05/19 03:08:04;;;;;;;;;21.50;20.50;;;;;;;;6376126;22;11417;-70
2023/05/19 03:10:29;;;;;;;;;24.25;23.75;;;;;;;;6375672;22;9544;-71
2023/05/19 03:12:54;;;;;;;;;32.25;30.00;;;;;;;;6375822;22;8743;-70
2023/05/19 03:15:22;;;;;;;;;25.00;19.50;;;;;;;;6375891;22;8759;-70
2023/05/19 03:17:47;;;;;;;;;22.25;21.25;;;;;;;;6376327;22;8728;-70
2023/05/19 03:20:14;;;;;;;;;27.25;26.50;;;;;;;;6376073;22;11522;-70
2023/05/19 03:22:39;;;;;;;;;24.50;22.25;;;;;;;;6376016;22;8705;-70
2023/05/19 03:25:05;;;;;;;;;20.00;18.00;;;;;;;;6375550;22;12148;-70
2023/05/19 03:27:30;;;;;;;;;22.75;22.00;;;;;;;;6375706;22;8786;-70
2023/05/19 03:29:55;;;;;;;;;25.50;23.00;;;;;;;;6376069;22;8759;-70
2023/05/19 03:32:20;;;;;;;;;23.50;21.00;;;;;;;;6376197;22;8728;-70
2023/05/19 03:34:45;;;;;;;;;23.25;21.75;;;;;;;;6376481;22;8797;-71
2023/05/19 03:37:11;;;;;;;;;23.75;20.00;;;;;;;;6376279;22;8846;-70
2023/05/19 03:39:36;;;;;;;;;23.75;22.25;;;;;;;;6375051;22;8732;-70
2023/05/19 03:42:02;;;;;;;;;29.00;26.75;;;;;;;;6347820;22;9184;-71
2023/05/19 03:44:27;;;;;;;;;25.25;22.00;;;;;;;;6375604;22;8867;-70
2023/05/19 03:46:52;;;;;;;;;24.00;21.50;;;;;;;;6376756;22;8740;-70
2023/05/19 03:49:17;;;;;;;;;22.00;20.75;;;;;;;;6376055;22;8834;-70
2023/05/19 03:51:43;;;;;;;;;25.25;22.00;;;;;;;;6375641;22;8756;-70
2023/05/19 03:54:08;;;;;;;;;25.50;23.50;;;;;;;;6375535;22;8763;-70
2023/05/19 03:56:37;;;;;;;;;27.50;24.75;;;;;;;;6376081;22;8748;-70
2023/05/19 03:59:04;;;;;;;;;22.75;21.50;;;;;;;;6375556;22;8730;-70
2023/05/19 04:01:30;;;;;;;;;29.75;25.00;;;;;;;;6375563;22;11426;-70
2023/05/19 04:03:55;;;;;;;;;28.50;25.50;;;;;;;;6375859;22;11442;-71
2023/05/19 04:06:20;;;;;;;;;22.50;22.50;;;;;;;;6376137;22;8744;-70
2023/05/19 04:08:46;;;;;;;;;22.25;12.75;;;;;;;;6375943;22;8846;-70
2023/05/19 04:11:11;;;;;;;;;34.75;31.50;;;;;;;;6375985;22;8825;-70
2023/05/19 04:13:36;;;;;;;;;27.25;24.25;;;;;;;;6375666;22;8748;-70
2023/05/19 04:16:01;;;;;;;;;33.25;29.00;;;;;;;;6375599;22;8763;-70
2023/05/19 04:18:26;;;;;;;;;25.75;22.50;;;;;;;;6375591;22;8842;-70
2023/05/19 04:20:52;;;;;;;;;28.00;26.75;;;;;;;;6376393;22;8884;-70
2023/05/19 04:23:17;;;;;;;;;26.00;22.00;;;;;;;;6375893;22;8758;-70
2023/05/19 04:25:42;;;;;;;;;26.25;25.75;;;;;;;;6375970;22;9480;-71
2023/05/19 04:28:07;;;;;;;;;27.50;24.00;;;;;;;;6375975;22;8731;-69
2023/05/19 04:30:33;;;;;;;;;28.00;25.25;;;;;;;;6347387;22;9493;-69
2023/05/19 04:32:59;;;;;;;;;28.25;27.00;;;;;;;;6375304;22;8755;-70
2023/05/19 04:35:25;;;;;;;;;23.00;21.75;;;;;;;;6375612;22;8827;-70
2023/05/19 04:37:53;;;;;;;;;25.50;20.75;;;;;;;;6375698;22;11540;-70
2023/05/19 04:40:19;;;;;;;;;25.75;23.75;;;;;;;;6374683;22;8759;-70
2023/05/19 04:42:45;;;;;;;;;27.00;24.25;;;;;;;;6375110;22;11540;-69
2023/05/19 04:45:12;;;;;;;;;22.25;21.00;;;;;;;;6375712;22;11424;-69
2023/05/19 04:47:38;;;;;;;;;32.75;29.00;;;;;;;;6375835;22;8734;-70
2023/05/19 04:50:04;;;;;;;;;31.25;23.25;;;;;;;;6375306;22;11435;-69
2023/05/19 04:52:29;;;;;;;;;25.25;24.25;;;;;;;;6375423;22;8908;-69
2023/05/19 04:54:55;;;;;;;;;24.75;22.75;;;;;;;;6375653;22;8740;-69
2023/05/19 04:57:20;;;;;;;;;26.00;22.00;;;;;;;;6347314;22;8771;-71
2023/05/19 04:59:45;;;;;;;;;29.50;24.00;;;;;;;;6375911;22;8747;-69
2023/05/19 05:02:10;;;;;;;;;28.25;26.75;;;;;;;;6375190;22;8844;-72
2023/05/19 05:04:36;;;;;;;;;30.25;24.25;;;;;;;;6347243;22;8782;-71
2023/05/19 05:07:01;;;;;;;;;22.75;21.75;;;;;;;;6374822;22;8849;-72
2023/05/19 05:09:26;;;;;;;;;31.00;27.75;;;;;;;;6374688;22;8752;-70
2023/05/19 05:11:52;;;;;;;;;28.75;25.75;;;;;;;;6375587;22;8850;-72
2023/05/19 05:14:17;;;;;;;;;34.00;25.50;;;;;;;;6375728;22;8752;-70
2023/05/19 05:16:42;;;;;;;;;28.75;25.75;;;;;;;;6375356;22;8756;-71
2023/05/19 05:19:07;;;;;;;;;24.75;21.00;;;;;;;;6375374;22;8763;-71
2023/05/19 05:21:33;;;;;;;;;24.00;22.50;;;;;;;;6375468;22;8752;-71
2023/05/19 05:23:58;;;;;;;;;28.75;23.75;;;;;;;;6375122;22;8832;-71
2023/05/19 05:26:27;;;;;;;;;27.00;25.00;;;;;;;;6375246;22;8747;-71
2023/05/19 05:28:52;;;;;;;;;21.50;21.00;;;;;;;;6375804;22;8696;-71
2023/05/19 05:31:17;;;;;;;;;31.00;25.75;;;;;;;;6375333;22;11525;-71
2023/05/19 05:33:43;;;;;;;;;27.50;27.50;;;;;;;;6375496;22;8871;-70
2023/05/19 05:36:08;;;;;;;;;31.25;24.50;;;;;;;;6346981;22;8748;-71
2023/05/19 05:38:33;;;;;;;;;32.00;27.75;;;;;;;;6375012;22;8760;-71
2023/05/19 05:41:01;;;;;;;;;26.25;24.50;;;;;;;;6375029;22;8803;-72
2023/05/19 05:43:26;;;;;;;;;33.75;26.00;;;;;;;;6375298;22;8735;-74
2023/05/19 05:45:51;;;;;;;;;30.25;25.25;;;;;;;;6374913;22;11444;-73
2023/05/19 05:48:17;;;;;;;;;30.50;24.25;;;;;;;;6375652;22;8755;-71
2023/05/19 05:50:43;;;;;;;;;23.75;23.50;;;;;;;;6375333;22;8732;-72
2023/05/19 05:53:08;;;;;;;;;34.00;28.75;;;;;;;;6375335;22;8720;-71
2023/05/19 05:55:33;;;;;;;;;22.50;22.25;;;;;;;;6374856;22;11536;-71
2023/05/19 05:58:00;;;;;;;;;28.75;25.00;;;;;;;;6346968;22;8740;-72
2023/05/19 06:00:27;;;;;;;;;27.00;24.00;;;;;;;;6375496;22;8716;-71
2023/05/19 06:02:52;;;;;;;;;25.25;21.25;;;;;;;;6375064;22;11434;-70
2023/05/19 06:05:17;;;;;;;;;28.75;22.25;;;;;;;;6374750;22;11429;-71
2023/05/19 06:07:43;;;;;;;;;25.00;22.75;;;;;;;;6374729;22;8790;-71
2023/05/19 06:10:11;;;;;;;;;37.75;29.75;;;;;;;;6374674;22;9476;-71
2023/05/19 06:12:39;;;;;;;;;28.00;23.75;;;;;;;;6374881;22;8728;-69
2023/05/19 06:15:05;;;;;;;;;24.00;22.00;;;;;;;;6375863;22;11420;-71
2023/05/19 06:17:30;;;;;;;;;25.25;24.25;;;;;;;;6376076;22;11629;-71
2023/05/19 06:19:56;;;;;;;;;30.25;25.00;;;;;;;;6377050;22;8736;-70
2023/05/19 06:22:21;;;;;;;;;29.25;22.50;;;;;;;;6376225;22;8744;-70
2023/05/19 06:24:46;;;;;;;;;21.75;19.75;;;;;;;;6376014;22;8763;-71
2023/05/19 06:27:12;;;;;;;;;27.75;23.75;;;;;;;;6376447;22;8877;-69
2023/05/19 06:29:37;;;;;;;;;25.75;24.50;;;;;;;;6376660;22;8785;-69
2023/05/19 06:32:03;;;;;;;;;21.00;19.75;;;;;;;;6376387;22;11437;-70
2023/05/19 06:34:28;;;;;;;;;24.50;22.50;;;;;;;;6376751;22;8752;-71
2023/05/19 06:36:53;;;;;;;;;30.25;21.75;;;;;;;;6375921;22;8771;-71
2023/05/19 06:39:18;;;;;;;;;22.00;19.25;;;;;;;;6374713;22;8787;-71
2023/05/19 06:41:43;;;;;;;;;24.00;21.75;;;;;;;;6376241;22;8797;-71
2023/05/19 06:44:09;;;;;;;;;21.00;18.75;;;;;;;;6376459;22;8756;-71
2023/05/19 06:46:34;;;;;;;;;21.25;21.25;;;;;;;;6376053;22;8740;-71
2023/05/19 06:48:59;;;;;;;;;12.00;9.50;;;;;;;;6376261;22;8747;-71
2023/05/19 06:51:25;;;;;;;;;28.50;24.00;;;;;;;;6375912;22;8845;-70
2023/05/19 06:53:50;;;;;;;;;29.25;24.75;;;;;;;;6376014;22;8748;-71
2023/05/19 06:56:16;;;;;;;;;23.50;22.00;;;;;;;;6376077;22;8852;-72
2023/05/19 06:58:42;;;;;;;;;19.25;19.25;;;;;;;;6376394;22;8753;-72
2023/05/19 07:01:07;;;;;;;;;25.00;22.25;;;;;;;;6376301;22;11426;-71
2023/05/19 07:03:32;;;;;;;;;23.25;20.50;;;;;;;;6376392;22;8856;-70
2023/05/19 07:05:58;;;;;;;;;24.00;23.75;;;;;;;;6379522;22;8752;-74
2023/05/19 07:08:23;;;;;;;;;22.75;20.00;;;;;;;;6381423;22;8752;-71
2023/05/19 07:10:48;;;;;;;;;26.75;24.75;;;;;;;;6377266;22;8744;-73
2023/05/19 07:13:13;;;;;;;;;25.25;20.75;;;;;;;;6375904;22;8870;-71
2023/05/19 07:15:38;;;;;;;;;21.00;19.75;;;;;;;;6376403;22;8779;-72
2023/05/19 07:18:04;;;;;;;;;24.25;19.25;;;;;;;;6376408;22;8740;-72
2023/05/19 07:20:29;;;;;;;;;19.00;17.75;;;;;;;;6376406;22;8849;-71
2023/05/19 07:22:54;;;;;;;;;24.50;20.75;;;;;;;;6347383;22;8756;-71
2023/05/19 07:25:20;;;;;;;;;20.75;17.25;;;;;;;;6375020;22;8747;-71
2023/05/19 07:27:45;;;;;;;;;19.50;18.50;;;;;;;;6376114;22;8810;-70
2023/05/19 07:30:10;;;;;;;;;21.75;19.50;;;;;;;;6376279;22;8747;-72
2023/05/19 07:32:36;;;;;;;;;19.00;18.25;;;;;;;;6347433;22;8755;-71
2023/05/19 07:35:01;;;;;;;;;27.00;19.75;;;;;;;;6376411;22;8752;-70
2023/05/19 07:37:26;;;;;;;;;22.75;19.25;;;;;;;;6375549;22;8763;-73
2023/05/19 07:39:51;;;;;;;;;17.00;16.50;;;;;;;;6375732;22;8821;-73
2023/05/19 07:42:17;;;;;;;;;25.50;19.75;;;;;;;;6375822;22;8755;-70
2023/05/19 07:44:42;;;;;;;;;25.25;23.00;;;;;;;;6375371;22;8858;-70
2023/05/19 07:47:08;;;;;;;;;23.50;21.75;;;;;;;;6376203;22;8786;-69
2023/05/19 07:49:33;;;;;;;;;19.75;19.75;;;;;;;;6375846;22;9504;-69
2023/05/19 07:51:58;;;;;;;;;21.25;20.50;;;;;;;;6375924;22;8883;-69
2023/05/19 07:54:23;;;;;;;;;21.75;19.50;;;;;;;;6375503;22;8752;-69
2023/05/19 07:56:49;;;;;;;;;16.25;15.25;;;;;;;;6376034;22;8752;-69
2023/05/19 07:59:14;;;;;;;;;24.75;17.75;;;;;;;;6375543;22;9535;-69
2023/05/19 08:01:39;;;;;;;;;23.50;19.25;;;;;;;;6375616;22;8862;-69
2023/05/19 08:04:05;;;;;;;;;24.00;22.75;;;;;;;;6347419;22;8783;-69
2023/05/19 08:06:30;;;;;;;;;24.75;21.25;;;;;;;;6375038;22;8755;-72
2023/05/19 08:08:55;;;;;;;;;25.75;18.00;;;;;;;;6347003;22;8747;-74
2023/05/19 08:11:21;;;;;;;;;27.50;21.50;;;;;;;;6374818;22;8748;-73
2023/05/19 08:13:47;;;;;;;;;21.75;18.25;;;;;;;;6345456;22;8751;-72
2023/05/19 08:16:13;;;;;;;;;16.50;16.50;;;;;;;;6373728;22;8720;-71
2023/05/19 08:18:38;;;;;;;;;22.50;20.00;;;;;;;;6373744;22;11644;-70
2023/05/19 08:21:03;;;;;;;;;18.25;17.50;;;;;;;;6374272;22;9516;-68
2023/05/19 08:23:28;;;;;;;;;16.00;16.00;;;;;;;;6374315;22;8755;-72
2023/05/19 08:25:53;;;;;;;;;16.50;16.50;;;;;;;;6374372;22;8842;-71
2023/05/19 08:28:19;;;;;;;;;21.25;18.25;;;;;;;;6374547;22;8760;-70
2023/05/19 08:30:44;;;;;;;;;13.50;12.75;;;;;;;;6375071;22;8826;-69
2023/05/19 08:33:09;;;;;;;;;15.50;14.50;;;;;;;;6375638;22;8764;-69
2023/05/19 08:35:34;;;;;;;;;12.50;12.50;;;;;;;;6375290;22;8850;-69
2023/05/19 08:38:00;;;;;;;;;12.75;12.50;;;;;;;;6371441;22;8751;-68
2023/05/19 08:40:27;;;;;;;;;17.00;15.00;;;;;;;;6341490;22;8818;-68
2023/05/19 08:42:53;;;;;;;;;15.00;13.25;;;;;;;;6343157;22;8751;-67
2023/05/19 08:45:18;;;;;;;;;15.25;10.25;;;;;;;;6343663;22;11563;-68
2023/05/19 08:47:46;;;;;;;;;14.00;13.25;;;;;;;;6343339;22;9486;-71
2023/05/19 08:50:13;;;;;;;;;16.25;14.50;;;;;;;;6342535;22;8753;-69
2023/05/19 08:52:44;;;;;;;;;19.75;16.75;;;;;;;;6343471;22;11421;-70
2023/05/19 08:55:32;;;;;;;;;17.75;16.00;;;;;;;;6344164;22;11430;-69
2023/05/19 08:57:59;;;;;;;;;20.25;13.50;;;;;;;;6330633;22;11473;-70
2023/05/19 09:00:24;;;;;;;;;14.75;12.00;;;;;;;;6343907;22;11375;-70
2023/05/19 09:02:50;;;;;;;;;20.25;18.00;;;;;;;;6342861;22;11520;-70
2023/05/19 09:05:16;;;;;;;;;18.25;16.75;;;;;;;;6342765;22;9563;-69
2023/05/19 09:07:42;;;;;;;;;15.50;15.50;;;;;;;;6342347;22;8822;-69
2023/05/19 09:10:07;;;;;;;;;9.75;9.25;;;;;;;;6343700;22;8753;-70
2023/05/19 09:12:33;;;;;;;;;10.00;7.75;;;;;;;;6339495;22;11456;-69
2023/05/19 09:14:58;;;;;;;;;10.00;10.00;;;;;;;;6343022;22;8864;-70
2023/05/19 09:17:23;;;;;;;;;9.00;9.00;;;;;;;;6344002;22;8772;-70
2023/05/19 09:19:50;;;;;;;;;14.25;14.25;;;;;;;;6343334;22;8769;-69
2023/05/19 09:22:17;;;;;;;;;9.25;9.00;;;;;;;;6341528;22;8756;-70
2023/05/19 09:24:43;;;;;;;;;16.25;14.25;;;;;;;;6343579;22;11509;-70
2023/05/19 09:27:08;;;;;;;;;17.00;15.50;;;;;;;;6339984;22;11512;-69
2023/05/19 09:29:33;;;;;;;;;15.00;15.00;;;;;;;;6341772;22;8839;-69
2023/05/19 09:32:03;;;;;;;;;13.00;12.75;;;;;;;;6342994;22;8793;-70
2023/05/19 09:34:29;;;;;;;;;18.50;15.00;;;;;;;;6341560;22;8749;-68
2023/05/19 09:36:54;;;;;;;;;13.50;12.00;;;;;;;;6343625;22;11424;-68
2023/05/19 09:39:20;;;;;;;;;13.50;13.25;;;;;;;;6357465;22;8853;-69
2023/05/19 09:41:45;;;;;;;;;15.50;12.50;;;;;;;;6375202;22;8738;-70
2023/05/19 09:44:31;;;;;;;;;15.25;13.50;;;;;;;;6374505;22;11387;-69
2023/05/19 09:46:57;;;;;;;;;13.50;10.75;;;;;;;;6374206;22;8748;-70
2023/05/19 09:49:24;;;;;;;;;11.00;11.00;;;;;;;;6374451;22;11487;-69
2023/05/19 09:51:50;;;;;;;;;11.75;11.00;;;;;;;;6375029;22;8732;-69
2023/05/19 09:54:15;;;;;;;;;11.50;11.00;;;;;;;;6374960;22;11374;-68
2023/05/19 09:56:40;;;;;;;;;16.00;15.25;;;;;;;;6375196;22;8875;-69
2023/05/19 09:59:06;;;;;;;;;16.25;13.25;;;;;;;;6374237;22;8782;-68
2023/05/19 10:01:36;;;;;;;;;13.50;12.50;;;;;;;;6374526;22;8802;-67
2023/05/19 10:04:02;;;;;;;;;13.25;12.00;;;;;;;;6346626;22;8767;-67
2023/05/19 10:06:27;;;;;;;;;17.00;13.50;;;;;;;;6346548;22;11364;-68
2023/05/19 10:08:53;;;;;;;;;14.75;13.00;;;;;;;;6374599;22;11391;-69
2023/05/19 10:11:20;;;;;;;;;16.25;16.25;;;;;;;;6345531;22;8775;-69
2023/05/19 10:13:45;;;;;;;;;13.75;12.25;;;;;;;;6374170;22;8774;-68
2023/05/19 10:16:11;;;;;;;;;15.50;13.00;;;;;;;;6373045;22;11379;-69
2023/05/19 10:18:36;;;;;;;;;19.25;19.25;;;;;;;;6374006;22;8755;-68
2023/05/19 10:21:02;;;;;;;;;12.75;12.75;;;;;;;;6373673;22;8752;-68
2023/05/19 10:23:27;;;;;;;;;15.00;13.75;;;;;;;;6374364;22;8878;-67
2023/05/19 10:25:55;;;;;;;;;9.75;9.25;;;;;;;;6373434;22;8775;-67
2023/05/19 10:28:24;;;;;;;;;12.00;10.00;;;;;;;;6346245;22;8848;-67
2023/05/19 10:30:52;;;;;;;;;14.25;11.25;;;;;;;;6374385;22;11201;-67
2023/05/19 10:33:19;;;;;;;;;13.00;11.50;;;;;;;;6374280;22;11429;-68
2023/05/19 10:35:44;;;;;;;;;15.75;13.75;;;;;;;;6374159;22;11366;-69
2023/05/19 10:38:10;;;;;;;;;15.50;13.00;;;;;;;;6373634;22;11374;-69
2023/05/19 10:40:35;;;;;;;;;10.80;9.00;;;;;;;;6373057;22;8768;-70
2023/05/19 10:43:10;;;;;;;;;13.40;12.40;;;;;;;;6374418;22;8755;-71
2023/05/19 10:45:42;;;;;;;;;14.75;12.25;;;;;;;;6373364;22;8760;-70
2023/05/19 10:48:12;;;;;;;;;16.00;13.50;;;;;;;;6373227;22;12127;-70
2023/05/19 10:50:37;;;;;;;;;12.00;10.00;;;;;;;;6372950;22;11373;-70
2023/05/19 10:53:03;;;;;;;;;15.00;15.00;;;;;;;;6374213;22;12212;-70
2023/05/19 10:55:50;;;;;;;;;16.75;15.25;;;;;;;;6374456;22;8744;-70
2023/05/19 10:58:35;;;;;;;;;14.00;9.25;;;;;;;;6373558;22;8732;-71
2023/05/19 11:01:00;;;;;;;;;11.75;11.50;;;;;;;;6374894;22;11408;-70
2023/05/19 11:03:27;;;;;;;;;13.00;12.50;;;;;;;;6375354;22;11381;-70
2023/05/19 11:06:13;;;;;;;;;13.50;12.25;;;;;;;;6375481;22;9449;-72
2023/05/19 11:08:38;;;;;;;;;11.50;10.00;;;;;;;;6346929;22;11450;-70
2023/05/19 11:11:14;;;;;;;;;9.00;8.00;;;;;;;;6373959;22;11337;-70
2023/05/19 11:13:41;;;;;;;;;12.00;10.25;;;;;;;;6375391;22;11380;-71
2023/05/19 11:16:07;;;;;;;;;10.75;9.75;;;;;;;;6346661;22;11165;-70
2023/05/19 11:18:32;;;;;;;;;9.25;9.25;;;;;;;;6375579;22;11438;-71
2023/05/19 11:21:00;;;;;;;;;13.50;13.00;;;;;;;;6375501;22;8766;-70
2023/05/19 11:23:26;;;;;;;;;6.00;5.75;;;;;;;;6371319;22;8752;-71
2023/05/19 11:25:54;;;;;;;;;14.00;13.50;;;;;;;;6370897;22;11819;-70
2023/05/19 11:28:24;;;;;;;;;10.00;8.75;;;;;;;;6374890;22;8748;-70
2023/05/19 11:30:50;;;;;;;;;12.25;10.50;;;;;;;;6344904;22;11001;-71
2023/05/19 11:33:18;;;;;;;;;11.50;10.25;;;;;;;;6373682;22;11121;-72
2023/05/19 11:35:44;;;;;;;;;12.25;11.00;;;;;;;;6374637;22;11479;-72
2023/05/19 11:38:09;;;;;;;;;8.75;8.75;;;;;;;;6375863;22;11142;-70
2023/05/19 11:40:35;;;;;;;;;14.00;12.50;;;;;;;;6375598;22;11330;-71
2023/05/19 11:43:00;;;;;;;;;14.50;11.75;;;;;;;;6375868;22;8740;-71
2023/05/19 11:45:26;;;;;;;;;8.00;8.00;;;;;;;;6375306;22;8766;-71
2023/05/19 11:47:53;;;;;;;;;9.25;9.00;;;;;;;;6376172;22;8809;-72
2023/05/19 11:50:19;;;;;;;;;11.50;10.50;;;;;;;;6375587;22;9347;-70
2023/05/19 11:52:46;;;;;;;;;11.25;9.00;;;;;;;;6375376;22;11125;-72
2023/05/19 11:55:20;;;;;;;;;7.50;7.00;;;;;;;;6376179;22;8732;-72
2023/05/19 11:58:06;;;;;;;;;15.50;12.00;;;;;;;;6374846;22;10859;-72
2023/05/19 12:00:36;;;;;;;;;13.00;11.00;;;;;;;;6374912;22;11809;-72
2023/05/19 12:03:02;;;;;;;;;13.75;12.50;;;;;;;;6374958;22;11088;-72
2023/05/19 12:05:28;;;;;;;;;11.75;10.75;;;;;;;;6375526;22;11301;-72
2023/05/19 12:07:53;;;;;;;;;10.00;9.25;;;;;;;;6375826;22;8794;-72
2023/05/19 12:10:29;;;;;;;;;6.75;6.75;;;;;;;;6375306;22;11477;-72
2023/05/19 12:12:54;;;;;;;;;8.00;7.75;;;;;;;;6374564;22;8744;-72
2023/05/19 12:15:23;;;;;;;;;12.75;12.00;;;;;;;;6375733;22;10815;-72
2023/05/19 12:17:55;;;;;;;;;9.25;9.25;;;;;;;;6344890;22;8724;-72
2023/05/19 12:20:20;;;;;;;;;10.00;9.50;;;;;;;;6346666;22;11013;-72
2023/05/19 12:22:46;;;;;;;;;12.75;10.75;;;;;;;;6375337;22;10877;-71
2023/05/19 12:25:12;;;;;;;;;12.75;10.00;;;;;;;;6374586;22;8736;-71
2023/05/19 12:27:37;;;;;;;;;9.50;9.50;;;;;;;;6374876;22;8768;-72
2023/05/19 12:30:03;;;;;;;;;12.50;11.50;;;;;;;;6375413;22;8756;-72
2023/05/19 12:32:28;;;;;;;;;15.00;11.00;;;;;;;;6374383;22;9529;-72
2023/05/19 12:34:57;;;;;;;;;9.25;9.00;;;;;;;;6374659;22;11124;-72
2023/05/19 12:37:26;;;;;;;;;12.25;10.25;;;;;;;;6374710;22;8838;-72
2023/05/19 12:39:51;;;;;;;;;9.25;8.75;;;;;;;;6372338;22;11025;-71
2023/05/19 12:42:17;;;;;;;;;9.75;9.75;;;;;;;;6375247;22;10769;-71
2023/05/19 12:44:45;;;;;;;;;10.25;9.75;;;;;;;;6375592;22;8771;-72
2023/05/19 12:47:10;;;;;;;;;11.75;11.25;;;;;;;;6374777;22;8854;-69
2023/05/19 12:49:35;;;;;;;;;12.00;9.75;;;;;;;;6345877;22;11070;-71
2023/05/19 12:52:02;;;;;;;;;7.75;7.75;;;;;;;;6375454;22;8759;-73
2023/05/19 12:54:31;;;;;;;;;7.25;7.25;;;;;;;;6375719;22;8728;-73
2023/05/19 12:56:56;;;;;;;;;9.50;8.50;;;;;;;;6374817;22;10855;-72
2023/05/19 12:59:22;;;;;;;;;15.75;13.25;;;;;;;;6375320;22;10981;-77
2023/05/19 13:01:57;;;;;;;;;11.00;11.00;;;;;;;;6347287;22;8733;-81
2023/05/19 13:04:26;;;;;;;;;10.00;10.00;;;;;;;;6374066;22;10759;-77
2023/05/19 13:06:52;;;;;;;;;12.50;12.50;;;;;;;;6375105;22;10821;-76
2023/05/19 13:09:17;;;;;;;;;8.75;8.75;;;;;;;;6346995;22;10995;-74
2023/05/19 13:11:43;;;;;;;;;10.75;10.00;;;;;;;;6375240;22;8732;-78
2023/05/19 13:14:11;;;;;;;;;12.50;10.75;;;;;;;;6375607;22;8751;-76
2023/05/19 13:16:36;;;;;;;;;12.50;12.50;;;;;;;;6375459;22;8720;-76
2023/05/19 13:19:01;;;;;;;;;11.25;9.25;;;;;;;;6375696;22;11145;-81
2023/05/19 13:21:27;;;;;;;;;10.75;10.75;;;;;;;;6374458;22;8752;-80
2023/05/19 13:23:52;;;;;;;;;14.00;9.00;;;;;;;;6376053;22;8764;-75
2023/05/19 13:26:17;;;;;;;;;9.25;6.25;;;;;;;;6375579;22;8759;-76
2023/05/19 13:28:42;;;;;;;;;10.25;10.25;;;;;;;;6375414;22;8756;-73
2023/05/19 13:31:09;;;;;;;;;13.25;9.75;;;;;;;;6374958;22;8776;-71
2023/05/19 13:33:34;;;;;;;;;10.00;9.50;;;;;;;;6374580;22;10902;-71
2023/05/19 13:35:59;;;;;;;;;10.00;10.00;;;;;;;;6374347;22;8760;-71
2023/05/19 13:38:24;;;;;;;;;8.75;7.75;;;;;;;;6346209;22;8817;-71
2023/05/19 13:40:50;;;;;;;;;9.00;7.00;;;;;;;;6374679;22;8744;-72
2023/05/19 13:43:15;;;;;;;;;10.50;10.50;;;;;;;;6375369;22;9598;-73
2023/05/19 13:45:42;;;;;;;;;10.75;9.75;;;;;;;;6346853;22;8855;-73
2023/05/19 13:48:07;;;;;;;;;10.25;9.00;;;;;;;;6375455;22;8744;-73
2023/05/19 13:50:33;;;;;;;;;6.75;6.50;;;;;;;;6375520;22;11197;-73
2023/05/19 13:52:58;;;;;;;;;10.50;10.50;;;;;;;;6375522;22;8732;-73
2023/05/19 13:55:25;;;;;;;;;8.50;8.50;;;;;;;;6320150;22;9106;-71
2023/05/19 13:57:50;;;;;;;;;8.75;8.25;;;;;;;;6374726;22;8748;-71
2023/05/19 14:00:17;;;;;;;;;14.25;11.50;;;;;;;;6373682;22;10915;-71
2023/05/19 14:02:43;;;;;;;;;14.00;11.25;;;;;;;;6344117;22;8759;-70
2023/05/19 14:05:08;;;;;;;;;8.25;6.75;;;;;;;;6374631;22;12159;-70
2023/05/19 14:07:34;;;;;;;;;9.75;8.75;;;;;;;;6374310;22;11111;-70
2023/05/19 14:09:59;;;;;;;;;13.75;10.50;;;;;;;;6373944;22;8760;-70
2023/05/19 14:12:25;;;;;;;;;8.50;7.75;;;;;;;;6374591;22;9928;-70
2023/05/19 14:14:50;;;;;;;;;9.50;8.00;;;;;;;;6346464;22;8755;-72
2023/05/19 14:17:15;;;;;;;;;8.25;7.75;;;;;;;;6346454;22;8772;-70
2023/05/19 14:19:40;;;;;;;;;13.75;9.50;;;;;;;;6374727;22;8774;-70
2023/05/19 14:22:06;;;;;;;;;10.50;10.50;;;;;;;;6375037;22;8869;-69
2023/05/19 14:24:31;;;;;;;;;13.75;11.00;;;;;;;;6374208;22;8879;-69